Time;durP1;ratioP1;P1;durP2;ratioP2;P2;SDS_P1;SDS_P2;PMS_P1;PMS_P2;Temp;Humidity;BMP_temperature;BMP_pressure;BME280_temperature;BME280_humidity;BME280_pressure;Samples;Min_cycle;Max_cycle;Signal;HPM_P1;HPM_P2
2024/01/05 00:02:17;;;;;;;28.48;7.25;;;;;;;;;;4995489;28;25134;-76
2024/01/05 00:04:43;;;;;;;33.67;7.63;;;;;;;;;;4992518;28;25076;-76
2024/01/05 00:07:10;;;;;;;25.60;7.25;;;;;;;;;;4989120;28;25077;-72
2024/01/05 00:09:36;;;;;;;31.27;6.85;;;;;;;;;;4994183;28;25056;-72
2024/01/05 00:12:03;;;;;;;29.70;7.38;;;;;;;;;;4991812;28;25026;-72
2024/01/05 00:14:30;;;;;;;23.55;6.82;;;;;;;;;;4985146;28;25058;-73
2024/01/05 00:16:59;;;;;;;27.60;7.43;;;;;;;;;;4990133;28;25071;-71
2024/01/05 00:19:25;;;;;;;22.05;6.47;;;;;;;;;;5011142;28;25048;-72
2024/01/05 00:21:51;;;;;;;24.90;6.85;;;;;;;;;;4992837;28;25258;-72
2024/01/05 00:24:17;;;;;;;29.42;6.93;;;;;;;;;;4990977;28;25114;-71
2024/01/05 00:26:43;;;;;;;22.90;6.65;;;;;;;;;;4992471;28;25131;-71
2024/01/05 00:29:09;;;;;;;26.05;6.07;;;;;;;;;;4987700;28;25101;-72
2024/01/05 00:31:35;;;;;;;27.00;6.65;;;;;;;;;;4989201;28;25079;-71
2024/01/05 00:34:01;;;;;;;23.02;6.68;;;;;;;;;;4991346;28;25067;-71
2024/01/05 00:36:27;;;;;;;26.20;6.45;;;;;;;;;;4988686;28;25089;-71
2024/01/05 00:38:53;;;;;;;23.45;5.47;;;;;;;;;;4993090;28;25125;-72
2024/01/05 00:41:20;;;;;;;25.30;5.78;;;;;;;;;;4992111;28;25068;-70
2024/01/05 00:43:46;;;;;;;28.33;6.50;;;;;;;;;;4996412;28;25067;-71
2024/01/05 00:46:12;;;;;;;28.52;7.07;;;;;;;;;;4984125;28;25076;-70
2024/01/05 00:48:38;;;;;;;26.75;7.13;;;;;;;;;;4993062;28;25091;-71
2024/01/05 00:51:04;;;;;;;24.58;6.32;;;;;;;;;;4988090;28;25082;-71
2024/01/05 00:53:30;;;;;;;28.80;7.63;;;;;;;;;;4986044;28;25077;-69
2024/01/05 00:55:56;;;;;;;25.08;5.75;;;;;;;;;;4993800;28;25138;-70
2024/01/05 00:58:22;;;;;;;29.15;6.55;;;;;;;;;;4995679;28;25071;-70
2024/01/05 01:00:48;;;;;;;17.38;5.35;;;;;;;;;;4989436;28;25064;-72
2024/01/05 01:03:14;;;;;;;25.67;6.85;;;;;;;;;;4995164;28;25069;-70
2024/01/05 01:05:40;;;;;;;21.27;6.93;;;;;;;;;;4989227;28;25069;-70
2024/01/05 01:08:06;;;;;;;23.38;5.32;;;;;;;;;;5024008;28;25065;-71
2024/01/05 01:10:32;;;;;;;26.40;5.82;;;;;;;;;;4988991;28;25106;-71
2024/01/05 01:12:58;;;;;;;25.38;5.45;;;;;;;;;;4992209;28;25049;-72
2024/01/05 01:15:24;;;;;;;28.77;6.10;;;;;;;;;;4990708;28;25064;-72
2024/01/05 01:17:50;;;;;;;27.17;6.03;;;;;;;;;;4993434;28;25073;-72
2024/01/05 01:20:16;;;;;;;19.30;5.25;;;;;;;;;;5023551;28;25066;-72
2024/01/05 01:22:42;;;;;;;21.23;5.47;;;;;;;;;;4984255;28;25063;-71
2024/01/05 01:25:08;;;;;;;23.85;4.78;;;;;;;;;;4998233;28;25064;-71
2024/01/05 01:27:34;;;;;;;20.90;5.30;;;;;;;;;;4991793;28;25065;-71
2024/01/05 01:30:00;;;;;;;20.05;5.32;;;;;;;;;;4991123;28;25079;-71
2024/01/05 01:32:26;;;;;;;21.10;5.70;;;;;;;;;;5007364;28;25062;-72
2024/01/05 01:34:52;;;;;;;19.98;4.90;;;;;;;;;;4993552;28;25089;-70
2024/01/05 01:37:18;;;;;;;18.65;4.80;;;;;;;;;;4992968;28;25076;-70
2024/01/05 01:39:44;;;;;;;20.63;4.95;;;;;;;;;;4990860;28;25153;-71
2024/01/05 01:42:10;;;;;;;17.15;4.68;;;;;;;;;;4991898;28;25089;-71
2024/01/05 01:44:35;;;;;;;20.15;5.75;;;;;;;;;;4992794;28;25079;-71
2024/01/05 01:47:02;;;;;;;21.90;5.03;;;;;;;;;;4996578;28;25072;-71
2024/01/05 01:49:28;;;;;;;24.58;5.10;;;;;;;;;;4996109;28;25081;-70
2024/01/05 01:51:54;;;;;;;20.15;5.07;;;;;;;;;;4991677;28;25066;-70
2024/01/05 01:54:22;;;;;;;18.30;4.70;;;;;;;;;;4994004;28;25054;-70
2024/01/05 01:56:49;;;;;;;19.02;4.25;;;;;;;;;;4987285;28;25074;-70
2024/01/05 01:59:16;;;;;;;17.65;5.55;;;;;;;;;;4989827;28;25056;-70
2024/01/05 02:01:53;;;;;;;16.58;4.57;;;;;;;;;;4988293;28;25065;-71
2024/01/05 02:04:20;;;;;;;25.50;4.72;;;;;;;;;;4994317;28;25071;-69
2024/01/05 02:06:46;;;;;;;24.48;5.22;;;;;;;;;;4993222;28;25088;-71
2024/01/05 02:09:12;;;;;;;16.65;4.93;;;;;;;;;;4993513;28;25059;-71
2024/01/05 02:11:38;;;;;;;15.50;4.10;;;;;;;;;;4991076;28;25057;-72
2024/01/05 02:14:04;;;;;;;20.65;4.90;;;;;;;;;;4989919;28;25076;-72
2024/01/05 02:16:30;;;;;;;16.65;4.70;;;;;;;;;;5021478;28;25134;-71
2024/01/05 02:18:56;;;;;;;14.93;4.70;;;;;;;;;;4995089;28;25062;-70
2024/01/05 02:21:24;;;;;;;20.75;4.40;;;;;;;;;;4989008;28;25076;-70
2024/01/05 02:23:50;;;;;;;20.85;4.60;;;;;;;;;;4991005;28;25152;-70
2024/01/05 02:26:16;;;;;;;14.73;3.92;;;;;;;;;;4994609;28;25095;-70
2024/01/05 02:28:42;;;;;;;14.05;4.07;;;;;;;;;;4994805;28;25083;-70
2024/01/05 02:31:08;;;;;;;14.10;4.22;;;;;;;;;;5022463;28;25135;-71
2024/01/05 02:33:34;;;;;;;18.75;3.90;;;;;;;;;;4999637;28;25140;-71
2024/01/05 02:36:00;;;;;;;14.95;4.68;;;;;;;;;;4992130;28;25151;-69
2024/01/05 02:38:26;;;;;;;19.83;4.60;;;;;;;;;;4992172;28;25146;-71
2024/01/05 02:40:55;;;;;;;12.32;4.15;;;;;;;;;;4985716;28;25081;-71
2024/01/05 02:43:21;;;;;;;15.95;3.70;;;;;;;;;;4984925;28;25079;-70
2024/01/05 02:45:47;;;;;;;12.48;3.75;;;;;;;;;;4983236;28;25049;-70
2024/01/05 02:48:13;;;;;;;18.50;4.93;;;;;;;;;;4989045;28;25125;-70
2024/01/05 02:50:39;;;;;;;14.90;3.80;;;;;;;;;;4987931;28;25120;-71
2024/01/05 02:53:05;;;;;;;16.38;4.40;;;;;;;;;;4982345;28;25122;-69
2024/01/05 02:55:31;;;;;;;18.92;4.22;;;;;;;;;;4988685;28;25159;-69
2024/01/05 02:57:57;;;;;;;12.35;4.00;;;;;;;;;;4990283;28;25060;-69
2024/01/05 03:00:23;;;;;;;16.23;4.13;;;;;;;;;;4986101;28;25076;-70
2024/01/05 03:02:49;;;;;;;12.07;3.40;;;;;;;;;;4990234;28;25048;-69
2024/01/05 03:05:15;;;;;;;10.40;3.33;;;;;;;;;;4990785;28;25061;-70
2024/01/05 03:07:42;;;;;;;14.90;4.20;;;;;;;;;;4992850;28;25060;-70
2024/01/05 03:10:08;;;;;;;12.07;3.78;;;;;;;;;;4986727;28;25061;-70
2024/01/05 03:12:34;;;;;;;10.73;4.05;;;;;;;;;;5002076;28;25062;-70
2024/01/05 03:15:00;;;;;;;14.10;3.97;;;;;;;;;;4993164;28;25144;-71
2024/01/05 03:17:26;;;;;;;14.27;3.97;;;;;;;;;;4988403;28;25137;-69
2024/01/05 03:19:52;;;;;;;16.48;4.15;;;;;;;;;;5018781;28;25077;-69
2024/01/05 03:22:18;;;;;;;18.38;5.20;;;;;;;;;;4988599;28;25075;-70
2024/01/05 03:24:43;;;;;;;10.60;4.00;;;;;;;;;;4984156;28;25071;-69
2024/01/05 03:27:13;;;;;;;11.68;4.20;;;;;;;;;;4988277;28;25067;-69
2024/01/05 03:29:39;;;;;;;8.35;3.70;;;;;;;;;;4986529;28;25054;-69
2024/01/05 03:32:05;;;;;;;13.63;3.95;;;;;;;;;;4983933;28;25059;-69
2024/01/05 03:34:32;;;;;;;9.85;3.67;;;;;;;;;;4992803;28;25113;-69
2024/01/05 03:36:58;;;;;;;11.15;3.70;;;;;;;;;;4987555;28;25059;-71
2024/01/05 03:39:24;;;;;;;10.27;3.55;;;;;;;;;;4989313;28;25063;-72
2024/01/05 03:41:50;;;;;;;18.40;3.83;;;;;;;;;;4998320;28;25123;-69
2024/01/05 03:44:20;;;;;;;11.20;3.30;;;;;;;;;;4991225;28;25111;-70
2024/01/05 03:46:49;;;;;;;9.57;3.33;;;;;;;;;;4988670;28;25078;-69
2024/01/05 03:49:15;;;;;;;12.40;2.92;;;;;;;;;;5026687;28;25084;-70
2024/01/05 03:51:41;;;;;;;13.57;3.10;;;;;;;;;;4993330;28;25121;-70
2024/01/05 03:54:07;;;;;;;13.57;3.20;;;;;;;;;;4993553;28;25127;-70
2024/01/05 03:56:40;;;;;;;13.82;3.70;;;;;;;;;;4995844;28;25067;-69
2024/01/05 03:59:06;;;;;;;8.90;2.80;;;;;;;;;;4982681;28;25103;-70
2024/01/05 04:01:33;;;;;;;10.88;3.42;;;;;;;;;;4979399;28;25150;-70
2024/01/05 04:03:59;;;;;;;9.05;2.70;;;;;;;;;;4991526;28;25063;-70
2024/01/05 04:06:25;;;;;;;14.20;2.85;;;;;;;;;;4991839;28;25054;-71
2024/01/05 04:08:51;;;;;;;12.98;2.67;;;;;;;;;;4985340;28;25060;-70
2024/01/05 04:11:21;;;;;;;10.00;2.50;;;;;;;;;;4985427;28;25138;-71
2024/01/05 04:13:48;;;;;;;8.57;2.40;;;;;;;;;;4982030;28;25088;-70
2024/01/05 04:16:14;;;;;;;10.20;2.40;;;;;;;;;;4989627;28;25069;-71
2024/01/05 04:18:40;;;;;;;12.10;2.67;;;;;;;;;;4990215;28;25053;-70
2024/01/05 04:21:06;;;;;;;11.70;2.40;;;;;;;;;;4989250;28;25097;-70
2024/01/05 04:23:32;;;;;;;16.15;3.33;;;;;;;;;;4987473;28;25077;-70
2024/01/05 04:25:58;;;;;;;11.35;2.90;;;;;;;;;;4985700;28;25132;-70
2024/01/05 04:28:24;;;;;;;16.30;3.45;;;;;;;;;;4987920;28;25070;-70
2024/01/05 04:30:50;;;;;;;10.82;4.00;;;;;;;;;;4995314;28;25088;-72
2024/01/05 04:33:16;;;;;;;9.43;4.10;;;;;;;;;;4992552;28;25079;-70
2024/01/05 04:35:44;;;;;;;11.75;5.35;;;;;;;;;;4997312;28;25066;-71
2024/01/05 04:38:10;;;;;;;17.45;5.05;;;;;;;;;;4995449;28;25059;-71
2024/01/05 04:40:36;;;;;;;11.10;4.18;;;;;;;;;;4989524;28;25060;-70
2024/01/05 04:43:02;;;;;;;9.40;3.45;;;;;;;;;;4991879;28;25065;-71
2024/01/05 04:45:28;;;;;;;10.23;3.88;;;;;;;;;;4995629;28;25067;-71
2024/01/05 04:47:54;;;;;;;9.15;3.85;;;;;;;;;;4999313;28;25066;-72
2024/01/05 04:50:20;;;;;;;10.52;3.30;;;;;;;;;;4992977;28;25069;-71
2024/01/05 04:52:46;;;;;;;15.32;4.45;;;;;;;;;;5000488;28;25071;-72
2024/01/05 04:55:14;;;;;;;11.10;3.58;;;;;;;;;;4998853;28;25103;-71
2024/01/05 04:57:41;;;;;;;8.00;3.33;;;;;;;;;;5001418;28;25065;-71
2024/01/05 05:00:08;;;;;;;4.97;2.90;;;;;;;;;;5000965;28;25110;-71
2024/01/05 05:02:34;;;;;;;6.90;2.65;;;;;;;;;;5029132;28;25071;-71
2024/01/05 05:05:00;;;;;;;11.00;2.53;;;;;;;;;;4999024;28;25111;-71
2024/01/05 05:07:26;;;;;;;7.82;2.45;;;;;;;;;;4999741;28;25104;-70
2024/01/05 05:09:52;;;;;;;3.40;1.90;;;;;;;;;;5018250;28;25084;-72
2024/01/05 05:12:18;;;;;;;4.43;2.08;;;;;;;;;;5031888;28;25088;-73
2024/01/05 05:14:44;;;;;;;1.67;1.27;;;;;;;;;;4993267;28;25137;-73
2024/01/05 05:17:10;;;;;;;5.03;1.73;;;;;;;;;;5004222;28;25069;-71
2024/01/05 05:19:36;;;;;;;3.17;1.48;;;;;;;;;;5029479;28;25056;-71
2024/01/05 05:22:02;;;;;;;4.82;1.75;;;;;;;;;;4993926;28;25050;-73
2024/01/05 05:24:28;;;;;;;4.00;1.25;;;;;;;;;;4994682;28;25055;-71
2024/01/05 05:26:55;;;;;;;3.17;1.42;;;;;;;;;;5004992;28;25057;-72
2024/01/05 05:29:20;;;;;;;3.83;1.40;;;;;;;;;;4997768;28;25053;-73
2024/01/05 05:31:46;;;;;;;6.60;1.17;;;;;;;;;;4997282;28;25155;-71
2024/01/05 05:34:12;;;;;;;3.63;1.15;;;;;;;;;;4991143;28;25066;-72
2024/01/05 05:36:38;;;;;;;1.08;1.08;;;;;;;;;;4989927;28;25080;-72
2024/01/05 05:39:06;;;;;;;1.75;0.85;;;;;;;;;;4991822;28;25131;-71
2024/01/05 05:41:32;;;;;;;1.60;1.17;;;;;;;;;;5028585;28;25055;-72
2024/01/05 05:43:58;;;;;;;0.50;0.50;;;;;;;;;;5004835;28;25117;-72
2024/01/05 05:46:24;;;;;;;1.83;0.70;;;;;;;;;;4989417;28;25073;-72
2024/01/05 05:48:50;;;;;;;3.50;0.70;;;;;;;;;;4999508;28;25050;-71
2024/01/05 05:51:16;;;;;;;0.75;0.50;;;;;;;;;;4989714;28;25138;-71
2024/01/05 05:53:42;;;;;;;1.30;0.77;;;;;;;;;;5027441;28;25048;-71
2024/01/05 05:56:09;;;;;;;4.88;0.70;;;;;;;;;;4996213;28;25096;-70
2024/01/05 05:58:35;;;;;;;1.63;0.70;;;;;;;;;;5029873;28;25101;-72
2024/01/05 06:01:01;;;;;;;2.30;1.05;;;;;;;;;;4997472;28;25061;-70
2024/01/05 06:03:27;;;;;;;3.95;0.88;;;;;;;;;;4998685;28;25063;-71
2024/01/05 06:05:53;;;;;;;1.95;1.10;;;;;;;;;;5002429;28;25065;-73
2024/01/05 06:08:19;;;;;;;1.98;1.10;;;;;;;;;;4996247;28;25068;-73
2024/01/05 06:10:45;;;;;;;2.03;0.80;;;;;;;;;;4984519;28;25049;-72
2024/01/05 06:13:11;;;;;;;5.57;0.82;;;;;;;;;;4996786;28;25143;-71
2024/01/05 06:15:37;;;;;;;5.30;1.25;;;;;;;;;;4992223;28;25109;-77
2024/01/05 06:18:03;;;;;;;0.73;0.50;;;;;;;;;;4989250;28;25056;-70
2024/01/05 06:20:29;;;;;;;2.60;0.80;;;;;;;;;;4996581;28;25077;-72
2024/01/05 06:22:55;;;;;;;1.17;0.60;;;;;;;;;;4984158;28;25067;-71
2024/01/05 06:25:21;;;;;;;2.65;0.90;;;;;;;;;;4998243;28;25052;-71
2024/01/05 06:27:47;;;;;;;0.95;0.70;;;;;;;;;;4991694;28;25110;-71
2024/01/05 06:30:13;;;;;;;3.83;0.70;;;;;;;;;;4992467;28;25058;-74
2024/01/05 06:32:39;;;;;;;0.70;0.40;;;;;;;;;;4987899;28;25185;-73
2024/01/05 06:35:07;;;;;;;2.53;0.43;;;;;;;;;;4995552;28;25093;-71
2024/01/05 06:37:33;;;;;;;3.28;1.48;;;;;;;;;;4992841;28;25054;-70
2024/01/05 06:39:59;;;;;;;1.25;0.45;;;;;;;;;;4994413;28;25075;-71
2024/01/05 06:42:25;;;;;;;1.77;0.57;;;;;;;;;;4985876;28;25066;-72
2024/01/05 06:44:51;;;;;;;3.42;0.52;;;;;;;;;;4994651;28;25115;-69
2024/01/05 06:47:17;;;;;;;1.25;0.77;;;;;;;;;;4992673;28;25088;-70
2024/01/05 06:49:43;;;;;;;1.67;0.90;;;;;;;;;;4992297;28;25133;-71
2024/01/05 06:52:09;;;;;;;3.80;1.20;;;;;;;;;;4989423;28;25073;-70
2024/01/05 06:54:34;;;;;;;1.92;0.90;;;;;;;;;;4992686;28;25142;-69
2024/01/05 06:57:01;;;;;;;3.42;0.80;;;;;;;;;;4992533;28;25116;-70
2024/01/05 06:59:30;;;;;;;2.15;0.93;;;;;;;;;;4987286;28;25115;-70
2024/01/05 07:01:56;;;;;;;4.80;1.10;;;;;;;;;;4995544;28;25104;-69
2024/01/05 07:04:23;;;;;;;4.65;1.00;;;;;;;;;;4993688;28;25141;-69
2024/01/05 07:06:49;;;;;;;3.50;1.10;;;;;;;;;;4984965;28;25060;-70
2024/01/05 07:09:15;;;;;;;4.88;1.15;;;;;;;;;;4993561;28;25069;-71
2024/01/05 07:11:41;;;;;;;2.58;1.10;;;;;;;;;;4995261;28;25108;-70
2024/01/05 07:14:07;;;;;;;4.13;1.42;;;;;;;;;;5001452;28;25182;-71
2024/01/05 07:16:33;;;;;;;2.05;1.10;;;;;;;;;;4995892;28;25077;-72
2024/01/05 07:18:59;;;;;;;1.70;1.13;;;;;;;;;;4999999;28;25100;-72
2024/01/05 07:21:26;;;;;;;1.70;1.20;;;;;;;;;;4989543;28;25070;-70
2024/01/05 07:23:52;;;;;;;3.13;1.20;;;;;;;;;;4996507;28;25090;-70
2024/01/05 07:26:21;;;;;;;2.53;1.40;;;;;;;;;;4998404;28;25089;-71
2024/01/05 07:28:47;;;;;;;3.42;1.50;;;;;;;;;;4998697;28;25060;-76
2024/01/05 07:31:14;;;;;;;3.63;1.50;;;;;;;;;;5006602;28;25074;-76
2024/01/05 07:33:40;;;;;;;4.82;1.40;;;;;;;;;;4994852;28;25084;-75
2024/01/05 07:36:06;;;;;;;3.72;1.60;;;;;;;;;;5006753;28;25151;-74
2024/01/05 07:38:35;;;;;;;2.15;1.30;;;;;;;;;;5000098;28;25070;-75
2024/01/05 07:41:02;;;;;;;3.00;1.70;;;;;;;;;;4998806;28;25139;-75
2024/01/05 07:43:28;;;;;;;2.40;1.63;;;;;;;;;;5008465;28;25057;-77
2024/01/05 07:45:54;;;;;;;1.85;1.50;;;;;;;;;;5001032;28;25072;-76
2024/01/05 07:48:21;;;;;;;5.38;2.15;;;;;;;;;;5001985;28;25085;-78
2024/01/05 07:50:47;;;;;;;2.55;1.48;;;;;;;;;;4998275;28;25054;-71
2024/01/05 07:53:13;;;;;;;2.42;1.60;;;;;;;;;;4997579;28;25084;-71
2024/01/05 07:55:40;;;;;;;4.20;1.85;;;;;;;;;;5024710;28;25058;-72
2024/01/05 07:58:05;;;;;;;2.20;1.85;;;;;;;;;;4998755;28;25090;-72
2024/01/05 08:00:31;;;;;;;4.03;2.13;;;;;;;;;;5006134;28;25150;-71
2024/01/05 08:03:03;;;;;;;10.60;2.40;;;;;;;;;;5001625;28;25133;-73
2024/01/05 08:05:29;;;;;;;3.95;2.78;;;;;;;;;;4995406;28;25067;-74
2024/01/05 08:07:55;;;;;;;5.82;2.53;;;;;;;;;;5001752;28;25084;-72
2024/01/05 08:10:21;;;;;;;3.15;2.70;;;;;;;;;;4992703;28;25106;-73
2024/01/05 08:12:47;;;;;;;3.15;2.75;;;;;;;;;;5003733;28;25150;-73
2024/01/05 08:15:13;;;;;;;3.33;2.70;;;;;;;;;;4993257;28;25059;-73
2024/01/05 08:17:40;;;;;;;7.82;2.90;;;;;;;;;;5001106;28;25045;-71
2024/01/05 08:20:06;;;;;;;6.00;3.17;;;;;;;;;;4994210;28;25085;-72
2024/01/05 08:22:32;;;;;;;5.93;3.92;;;;;;;;;;5003225;28;25063;-72
2024/01/05 08:24:58;;;;;;;4.30;3.50;;;;;;;;;;4995907;28;25048;-71
2024/01/05 08:27:24;;;;;;;4.80;4.10;;;;;;;;;;5001789;28;25054;-72
2024/01/05 08:29:50;;;;;;;3.90;3.60;;;;;;;;;;4997061;28;25061;-71
2024/01/05 08:32:16;;;;;;;5.80;4.25;;;;;;;;;;5006792;28;25053;-72
2024/01/05 08:34:42;;;;;;;7.43;4.28;;;;;;;;;;4995431;28;25081;-73
2024/01/05 08:37:08;;;;;;;7.15;4.53;;;;;;;;;;5034389;28;25073;-72
2024/01/05 08:39:34;;;;;;;6.00;5.03;;;;;;;;;;5000689;28;25101;-74
2024/01/05 08:42:00;;;;;;;6.55;4.75;;;;;;;;;;5002889;28;25124;-72
2024/01/05 08:44:26;;;;;;;7.15;5.68;;;;;;;;;;5004015;28;25080;-71
2024/01/05 08:46:53;;;;;;;10.57;6.07;;;;;;;;;;4999572;28;25093;-74
2024/01/05 08:49:19;;;;;;;7.38;5.97;;;;;;;;;;4996466;28;25080;-73
2024/01/05 08:51:45;;;;;;;7.78;5.78;;;;;;;;;;4999797;28;25076;-73
2024/01/05 08:54:12;;;;;;;8.02;5.82;;;;;;;;;;5030520;28;25071;-75
2024/01/05 08:56:38;;;;;;;6.45;5.75;;;;;;;;;;5031031;28;25084;-74
2024/01/05 08:59:07;;;;;;;6.97;6.28;;;;;;;;;;5036802;28;25083;-72
2024/01/05 09:01:33;;;;;;;7.88;6.13;;;;;;;;;;4992861;28;25044;-73
2024/01/05 09:03:59;;;;;;;18.23;7.30;;;;;;;;;;4997516;28;25076;-73
2024/01/05 09:06:25;;;;;;;6.57;5.97;;;;;;;;;;4995023;28;25109;-74
2024/01/05 09:08:51;;;;;;;6.68;5.78;;;;;;;;;;4999776;28;25120;-72
2024/01/05 09:11:17;;;;;;;8.10;6.20;;;;;;;;;;5000952;28;25072;-72
2024/01/05 09:13:43;;;;;;;7.30;6.55;;;;;;;;;;5035741;28;25073;-72
2024/01/05 09:16:09;;;;;;;7.03;5.82;;;;;;;;;;5000549;28;25080;-72
2024/01/05 09:18:35;;;;;;;7.10;6.40;;;;;;;;;;4996653;28;25091;-74
2024/01/05 09:21:02;;;;;;;7.47;6.63;;;;;;;;;;5034006;28;25096;-73
2024/01/05 09:23:28;;;;;;;7.15;6.45;;;;;;;;;;4997165;28;25061;-74
2024/01/05 09:25:54;;;;;;;9.13;8.18;;;;;;;;;;4994660;28;25101;-72
2024/01/05 09:28:20;;;;;;;8.10;6.85;;;;;;;;;;4998776;28;25075;-73
2024/01/05 09:30:46;;;;;;;8.73;7.63;;;;;;;;;;5001135;28;25066;-72
2024/01/05 09:33:12;;;;;;;8.57;7.38;;;;;;;;;;4994517;28;25058;-72
2024/01/05 09:35:38;;;;;;;9.32;8.25;;;;;;;;;;4999536;28;25054;-71
2024/01/05 09:38:04;;;;;;;9.20;8.25;;;;;;;;;;5004393;28;25061;-71
2024/01/05 09:40:30;;;;;;;9.55;8.50;;;;;;;;;;5003328;28;25072;-72
2024/01/05 09:42:57;;;;;;;9.30;8.27;;;;;;;;;;5034556;28;25053;-73
2024/01/05 09:45:24;;;;;;;9.45;7.45;;;;;;;;;;5002688;28;25068;-74
2024/01/05 09:47:51;;;;;;;10.48;7.30;;;;;;;;;;4995184;28;25112;-72
2024/01/05 09:50:17;;;;;;;10.38;7.75;;;;;;;;;;4997384;28;25096;-73
2024/01/05 09:52:44;;;;;;;11.57;8.15;;;;;;;;;;4998677;28;25157;-72
2024/01/05 09:55:10;;;;;;;7.70;7.00;;;;;;;;;;4998949;28;25084;-72
2024/01/05 09:57:36;;;;;;;8.73;7.00;;;;;;;;;;5005232;28;25102;-72
2024/01/05 10:00:06;;;;;;;7.38;6.78;;;;;;;;;;5004711;28;25050;-72
2024/01/05 10:02:33;;;;;;;8.90;8.00;;;;;;;;;;5003771;28;25070;-72
2024/01/05 10:05:00;;;;;;;9.48;8.40;;;;;;;;;;5004468;28;25070;-72
2024/01/05 10:07:26;;;;;;;11.38;8.90;;;;;;;;;;4998367;28;25068;-72
2024/01/05 10:09:55;;;;;;;10.35;9.00;;;;;;;;;;4997849;28;25064;-72
2024/01/05 10:12:21;;;;;;;12.57;9.57;;;;;;;;;;4993929;28;25078;-72
2024/01/05 10:14:47;;;;;;;12.30;9.20;;;;;;;;;;4994912;28;25066;-73
2024/01/05 10:17:15;;;;;;;10.68;9.50;;;;;;;;;;4995947;28;25080;-71
2024/01/05 10:19:41;;;;;;;10.40;9.40;;;;;;;;;;4992932;28;25060;-71
2024/01/05 10:22:14;;;;;;;8.82;8.02;;;;;;;;;;5028037;28;25100;-73
2024/01/05 10:24:42;;;;;;;10.43;9.32;;;;;;;;;;4999556;28;25057;-72
2024/01/05 10:27:09;;;;;;;10.10;9.18;;;;;;;;;;4995621;28;25067;-71
2024/01/05 10:29:37;;;;;;;9.93;8.35;;;;;;;;;;4998221;28;25146;-70
2024/01/05 10:32:12;;;;;;;9.90;8.80;;;;;;;;;;5030235;28;25070;-70
2024/01/05 10:34:50;;;;;;;10.48;9.05;;;;;;;;;;4994140;28;25060;-73
2024/01/05 10:37:17;;;;;;;11.88;8.73;;;;;;;;;;4992121;28;25100;-72
2024/01/05 10:39:47;;;;;;;11.05;10.05;;;;;;;;;;4993786;28;25106;-70
2024/01/05 10:42:26;;;;;;;11.05;9.80;;;;;;;;;;5026269;28;25052;-72
2024/01/05 10:44:54;;;;;;;11.25;9.57;;;;;;;;;;5026953;28;25076;-72
2024/01/05 10:47:20;;;;;;;12.90;8.70;;;;;;;;;;4995415;28;25086;-71
2024/01/05 10:49:50;;;;;;;13.80;9.70;;;;;;;;;;4997672;28;25058;-74
2024/01/05 10:52:19;;;;;;;13.27;9.15;;;;;;;;;;5030299;28;25068;-72
2024/01/05 10:54:47;;;;;;;15.90;10.38;;;;;;;;;;5021482;28;25071;-72
2024/01/05 10:57:14;;;;;;;10.32;9.20;;;;;;;;;;4991342;28;25094;-72
2024/01/05 10:59:42;;;;;;;11.35;9.48;;;;;;;;;;4995723;28;25086;-73
2024/01/05 11:02:13;;;;;;;12.23;8.73;;;;;;;;;;4993363;28;25096;-72
2024/01/05 11:04:41;;;;;;;10.95;7.97;;;;;;;;;;4996475;28;25051;-74
2024/01/05 11:07:08;;;;;;;9.07;7.95;;;;;;;;;;4991332;28;25045;-74
2024/01/05 11:09:52;;;;;;;10.50;7.10;;;;;;;;;;4988757;28;25052;-73
2024/01/05 11:12:38;;;;;;;8.15;7.38;;;;;;;;;;4989980;28;25076;-74
2024/01/05 11:15:04;;;;;;;10.80;7.88;;;;;;;;;;4994763;28;25074;-75
2024/01/05 11:17:30;;;;;;;8.60;7.72;;;;;;;;;;4996831;28;25060;-74
2024/01/05 11:20:20;;;;;;;7.63;6.93;;;;;;;;;;4999172;28;25062;-75
2024/01/05 11:22:48;;;;;;;10.45;7.72;;;;;;;;;;4990658;28;25142;-74
2024/01/05 11:25:15;;;;;;;10.68;7.80;;;;;;;;;;4996146;28;25062;-74
2024/01/05 11:27:45;;;;;;;10.18;8.68;;;;;;;;;;4989056;28;25071;-73
2024/01/05 11:30:12;;;;;;;19.77;9.35;;;;;;;;;;5027315;28;25065;-70
2024/01/05 11:32:49;;;;;;;10.38;8.82;;;;;;;;;;4998061;28;25123;-73
2024/01/05 11:35:21;;;;;;;10.77;8.30;;;;;;;;;;4995439;28;25059;-73
2024/01/05 11:37:47;;;;;;;11.57;9.95;;;;;;;;;;4990812;28;25066;-74
2024/01/05 11:40:27;;;;;;;13.00;10.02;;;;;;;;;;4996316;28;25067;-74
2024/01/05 11:42:53;;;;;;;13.95;10.77;;;;;;;;;;4995063;28;25087;-73
2024/01/05 11:45:38;;;;;;;11.13;9.57;;;;;;;;;;4995496;28;25062;-73
2024/01/05 11:48:04;;;;;;;13.32;10.30;;;;;;;;;;4996945;28;25084;-74
2024/01/05 11:50:32;;;;;;;12.55;9.77;;;;;;;;;;4987959;28;25084;-73
2024/01/05 11:53:30;;;;;;;10.65;9.57;;;;;;;;;;4997438;28;25098;-72
2024/01/05 11:55:57;;;;;;;11.48;8.68;;;;;;;;;;4951409;28;25063;-74
2024/01/05 11:58:38;;;;;;;9.48;8.13;;;;;;;;;;4996109;28;25077;-75
2024/01/05 12:01:05;;;;;;;10.23;8.15;;;;;;;;;;5029718;28;25068;-72
2024/01/05 12:03:31;;;;;;;10.30;9.13;;;;;;;;;;4991960;28;25053;-73
2024/01/05 12:06:01;;;;;;;12.18;8.13;;;;;;;;;;4998704;28;25069;-72
2024/01/05 12:08:27;;;;;;;16.38;8.73;;;;;;;;;;4997124;28;25060;-73
2024/01/05 12:10:57;;;;;;;9.75;6.22;;;;;;;;;;4995985;28;25128;-73
2024/01/05 12:13:27;;;;;;;8.73;6.10;;;;;;;;;;4993662;28;25083;-73
2024/01/05 12:15:53;;;;;;;8.07;5.53;;;;;;;;;;4992291;28;25064;-73
2024/01/05 12:18:23;;;;;;;9.68;5.68;;;;;;;;;;4992024;28;25102;-74
2024/01/05 12:20:52;;;;;;;7.05;6.10;;;;;;;;;;4991826;28;25065;-72
2024/01/05 12:23:19;;;;;;;6.82;6.13;;;;;;;;;;5026079;28;25051;-72
2024/01/05 12:25:44;;;;;;;10.65;6.43;;;;;;;;;;5018321;28;25092;-72
2024/01/05 12:28:17;;;;;;;8.63;7.40;;;;;;;;;;4992950;28;25089;-73
2024/01/05 12:30:43;;;;;;;;;;;;;;;;;;4995350;28;25053;-73
2024/01/05 12:33:09;;;;;;;9.50;7.97;;;;;;;;;;4998278;28;25073;-72
2024/01/05 12:35:35;;;;;;;10.23;7.28;;;;;;;;;;5031398;28;25081;-74
2024/01/05 12:38:01;;;;;;;9.15;7.05;;;;;;;;;;4999066;28;25125;-72
2024/01/05 12:40:28;;;;;;;12.32;8.02;;;;;;;;;;4994100;28;25061;-72
2024/01/05 12:42:54;;;;;;;8.90;7.70;;;;;;;;;;4996938;28;25057;-72
2024/01/05 12:45:22;;;;;;;12.68;7.28;;;;;;;;;;4997744;28;25074;-71
2024/01/05 12:47:49;;;;;;;11.50;7.30;;;;;;;;;;5008145;28;25086;-72
2024/01/05 12:50:25;;;;;;;7.82;6.93;;;;;;;;;;4986982;28;25047;-71
2024/01/05 12:52:52;;;;;;;8.60;6.47;;;;;;;;;;4997872;28;25070;-74
2024/01/05 12:55:31;;;;;;;10.07;5.45;;;;;;;;;;4995505;28;25161;-73
2024/01/05 12:58:03;;;;;;;10.85;6.70;;;;;;;;;;4989079;28;25134;-73
2024/01/05 13:00:30;;;;;;;8.00;5.50;;;;;;;;;;4999707;28;25065;-73
2024/01/05 13:02:56;;;;;;;12.07;6.35;;;;;;;;;;5000118;28;25057;-73
2024/01/05 13:05:26;;;;;;;6.38;5.72;;;;;;;;;;4995216;28;25136;-73
2024/01/05 13:07:53;;;;;;;10.25;6.63;;;;;;;;;;4990813;28;25066;-73
2024/01/05 13:10:20;;;;;;;9.45;6.82;;;;;;;;;;5020423;28;25056;-74
2024/01/05 13:12:46;;;;;;;6.88;5.85;;;;;;;;;;5006257;28;25072;-72
2024/01/05 13:15:15;;;;;;;6.38;5.78;;;;;;;;;;4992681;28;25124;-73
2024/01/05 13:17:48;;;;;;;7.93;6.93;;;;;;;;;;5030263;28;25057;-73
2024/01/05 13:20:18;;;;;;;9.20;6.28;;;;;;;;;;4994260;28;25053;-73
2024/01/05 13:22:44;;;;;;;7.35;6.60;;;;;;;;;;4988382;28;25071;-73
2024/01/05 13:25:12;;;;;;;6.38;5.22;;;;;;;;;;4995483;28;25054;-76
2024/01/05 13:27:40;;;;;;;7.18;5.40;;;;;;;;;;4992507;28;25084;-76
2024/01/05 13:30:15;;;;;;;7.00;6.32;;;;;;;;;;4990053;28;25061;-74
2024/01/05 13:32:44;;;;;;;7.63;5.95;;;;;;;;;;4991501;28;25077;-73
2024/01/05 13:35:10;;;;;;;8.60;6.35;;;;;;;;;;4994480;28;25099;-72
2024/01/05 13:37:38;;;;;;;6.97;6.30;;;;;;;;;;4989593;28;25082;-74
2024/01/05 13:40:05;;;;;;;9.15;7.32;;;;;;;;;;4987292;28;25103;-74
2024/01/05 13:42:32;;;;;;;10.73;7.05;;;;;;;;;;4984790;28;25073;-74
2024/01/05 13:44:58;;;;;;;11.25;7.38;;;;;;;;;;4985366;28;25073;-73
2024/01/05 13:47:24;;;;;;;7.72;6.90;;;;;;;;;;4983828;28;25088;-73
2024/01/05 13:49:50;;;;;;;7.97;7.03;;;;;;;;;;4985186;28;25082;-74
2024/01/05 13:52:17;;;;;;;7.40;6.55;;;;;;;;;;4995401;28;25119;-72
2024/01/05 13:54:43;;;;;;;11.32;7.20;;;;;;;;;;4988691;28;25063;-74
2024/01/05 13:57:09;;;;;;;9.25;6.85;;;;;;;;;;4995195;28;25070;-73
2024/01/05 13:59:35;;;;;;;7.30;6.55;;;;;;;;;;4993115;28;25117;-73
2024/01/05 14:02:02;;;;;;;9.48;7.22;;;;;;;;;;4993654;28;25066;-74
2024/01/05 14:04:28;;;;;;;8.30;7.50;;;;;;;;;;4985759;28;25148;-74
2024/01/05 14:06:54;;;;;;;9.13;7.00;;;;;;;;;;5016772;28;25141;-75
2024/01/05 14:09:20;;;;;;;12.75;7.85;;;;;;;;;;4981195;28;25125;-74
2024/01/05 14:11:46;;;;;;;9.82;7.10;;;;;;;;;;4978825;28;25057;-73
2024/01/05 14:14:12;;;;;;;10.05;6.93;;;;;;;;;;4982657;28;25137;-74
2024/01/05 14:16:41;;;;;;;7.32;6.40;;;;;;;;;;4979231;28;25072;-72
2024/01/05 14:19:07;;;;;;;6.72;5.95;;;;;;;;;;4986351;28;25048;-76
2024/01/05 14:21:33;;;;;;;8.15;7.00;;;;;;;;;;4994309;28;25138;-75
2024/01/05 14:23:59;;;;;;;10.98;7.13;;;;;;;;;;4998851;28;25121;-72
2024/01/05 14:26:26;;;;;;;10.25;6.40;;;;;;;;;;4987804;28;25048;-73
2024/01/05 14:28:52;;;;;;;8.43;7.15;;;;;;;;;;4996411;28;25112;-73
2024/01/05 14:31:28;;;;;;;9.25;6.40;;;;;;;;;;4985051;28;25048;-76
2024/01/05 14:33:55;;;;;;;9.82;6.88;;;;;;;;;;4985318;28;25058;-74
2024/01/05 14:36:21;;;;;;;9.07;7.05;;;;;;;;;;4985338;28;25073;-73